Latest Coastal Weather Observations for Dunalley

IDT60701

Issued at 11:45 pm EST Thursday 31 July 2014 (issued every 10 minutes, with the page automatically refreshed every 10 minutes)

About coastal observations | Map of coastal stations | Coastal observations for TAS | Marine services | Other Formats
Station Details ID: 094254 Name: DUNALLEY (STROUD POINT) Lat: -42.90 Lon: 147.79 Height: 12.43 m
Data from the previous 72 hours. | See also: Recent months at Dunalley
Date/Time
EST
Temp

°C
Wind Pressure Rain
since 9am
mm
Weather Cloud Vis
km
Sea
Height
m
Swell
Dir
 
Speed
knots
Gust
knots
hPa Trend Height
m
Period
s
Dir
31/11:30pm 4.5 NNW 20 31 985.2 - 17.6 - - - - - - -
31/11:00pm 6.0 NW 23 38 984.9 - 17.0 - - - - - - -
31/10:33pm 6.2 NW 18 30 984.0 - 16.8 - - - - - - -
31/10:30pm 6.0 NW 17 25 983.9 - 16.8 - - - - - - -
31/10:00pm 6.3 WNW 19 29 984.3 - 16.8 - - - - - - -
31/09:31pm 6.2 WNW 19 29 984.2 - 16.8 - - - - - - -
31/09:30pm 6.3 WNW 20 29 984.1 - 16.8 - - - - - - -
31/09:02pm 6.7 WNW 17 27 984.0 - 16.8 - - - - - - -
31/09:00pm 6.6 WNW 17 27 984.0 - 16.8 Recent precip. - - - - - -
31/08:48pm 6.5 NW 15 27 983.5 - 16.8 - - - - - - -
31/08:30pm 6.0 NW 15 24 982.9 - 16.8 - - - - - - -
31/08:00pm 7.3 WNW 17 31 982.7 - 16.6 - - - - - - -
31/07:30pm 7.5 NW 15 26 982.0 - 16.6 - - - - - - -
31/07:03pm 8.9 NW 18 45 982.2 - 16.6 - - - - - - -
31/07:00pm 9.1 NW 15 25 982.0 - 16.6 - - - - - - -
31/06:36pm 9.0 NW 15 31 981.7 - 16.6 - - - - - - -
31/06:30pm 8.9 NW 15 25 981.6 - 16.6 - - - - - - -
31/06:18pm 9.1 NNW 15 27 981.8 - 16.6 - - - - - - -
31/06:00pm 8.5 NNW 8 12 981.3 - 16.6 - - - - - - -
31/05:30pm 8.1 N 9 14 981.3 - 16.6 - - - - - - -
31/05:00pm 7.5 WSW 5 9 980.9 - 16.6 - - - - - - -
31/04:30pm 6.6 WSW 3 5 982.0 - 16.6 - - - - - - -
31/04:00pm 6.2 SW 1 5 981.6 - 16.6 - - - - - - -
31/03:30pm 6.3 SW 3 4 981.4 - 16.6 - - - - - - -
31/03:00pm 6.7 SSW 6 9 981.8 - 16.6 Recent precip. - - - - - -
31/02:30pm 6.3 SSW 14 16 982.6 - 16.4 - - - - - - -
31/02:00pm 6.5 S 12 14 981.7 - 15.6 - - - - - - -
31/01:30pm 6.8 S 9 10 981.8 - 13.6 - - - - - - -
31/01:00pm 7.2 N 8 9 982.0 - 10.6 - - - - - - -
31/12:30pm 7.5 N 3 4 982.7 - 8.2 - - - - - - -
31/12:00pm 7.4 N 3 5 983.7 - 6.4 Rain - - - - - -
31/11:30am 7.5 NNW 7 8 983.7 - 5.6 - - - - - - -
31/11:26am 7.5 NW 7 8 983.8 - 5.4 - - - - - - -
31/11:00am 7.7 CALM 0 0 985.8 - 3.8 - - - - - - -
31/10:30am 7.6 NW 2 3 986.0 - 2.2 - - - - - - -
31/10:00am 7.8 NW 3 4 986.4 - 0.6 - - - - - - -
31/09:30am 7.9 CALM 0 1 986.6 - 0.2 - - - - - - -
31/09:00am 8.0 WNW 3 4 987.6 - 8.6 Recent precip. - - - - - -
31/08:30am 7.8 NW 7 9 988.5 - 8.4 - - - - - - -
31/08:00am 7.9 NNW 7 10 989.0 - 8.0 - - - - - - -
31/07:30am 7.5 SSW 3 6 989.5 - 7.8 - - - - - - -
31/07:00am 7.4 SSW 3 4 989.5 - 6.8 - - - - - - -
31/06:30am 7.9 SSW 5 6 990.0 - 6.0 - - - - - - -
31/06:00am 7.7 SSW 5 7 989.6 - 6.0 Recent precip. - - - - - -
31/05:30am 8.0 SSW 6 11 990.0 - 5.8 - - - - - - -
31/05:00am 8.2 SSW 18 24 990.0 - 3.4 - - - - - - -
31/04:30am 10.7 W 14 19 988.7 - 0.6 - - - - - - -
31/04:05am 11.4 W 15 24 988.3 - 0.2 - - - - - - -
31/04:00am 10.5 W 3 7 988.4 - 0.2 - - - - - - -
31/03:30am 10.1 W 3 5 988.7 - 0.2 - - - - - - -
31/03:00am 10.6 SW 17 26 988.9 - 0.2 Rain - - - - - -
31/02:47am 12.3 WSW 24 26 989.3 - 0.0 - - - - - - -
31/02:30am 15.1 NW 13 23 988.4 - 0.0 - - - - - - -
31/02:01am 14.9 NW 16 26 988.3 - 0.0 - - - - - - -
31/02:00am 14.9 NW 15 20 988.4 - 0.0 - - - - - - -
31/01:30am 15.0 WNW 20 36 988.0 - 0.0 - - - - - - -
31/01:00am 14.9 NW 19 30 987.9 - 0.0 - - - - - - -
31/12:55am 14.9 NW 18 29 987.8 - 0.0 - - - - - - -
31/12:30am 14.5 NW 16 23 987.9 - 0.0 - - - - - - -
31/12:10am 14.5 NW 15 28 988.6 - 0.0 - - - - - - -
31/12:00am 14.3 NW 12 24 989.1 - 0.0 - - - - - - -
 
Date/Time
EST
Temp

°C
Wind Pressure Rain
since 9am
mm
Weather Cloud Vis
km
Sea
Height
m
Swell
Dir
 
Speed
knots
Gust
knots
hPa Trend Height
m
Period
s
Dir
30/11:34pm 14.3 NW 15 26 989.2 - 0.0 - - - - - - -
30/11:30pm 14.1 WNW 14 22 989.3 - 0.0 - - - - - - -
30/11:04pm 14.3 NW 15 26 989.4 - 0.0 - - - - - - -
30/11:00pm 14.7 NW 17 26 989.4 - 0.0 - - - - - - -
30/10:30pm 15.1 WNW 23 38 989.6 - 0.0 - - - - - - -
30/10:27pm 15.1 WNW 21 38 989.6 - 0.0 - - - - - - -
30/10:01pm 14.9 NW 17 27 990.1 - 0.0 - - - - - - -
30/10:00pm 15.0 NW 17 26 990.2 - 0.0 - - - - - - -
30/09:33pm 14.6 NW 15 25 990.4 - 0.0 - - - - - - -
30/09:30pm 14.4 NW 16 25 990.4 - 0.0 - - - - - - -
30/09:14pm 14.3 NW 15 25 990.5 - 0.0 - - - - - - -
30/09:00pm 13.8 NNW 11 16 990.7 - 0.0 - - - - - - -
30/08:30pm 13.3 NW 10 20 991.3 - 0.0 - - - - - - -
30/08:00pm 12.9 NNW 11 21 991.7 - 0.0 - - - - - - -
30/07:30pm 13.4 NW 11 21 992.3 - 0.0 - - - - - - -
30/07:00pm 13.3 WNW 13 21 992.8 - 0.0 - - - - - - -
30/06:33pm 13.5 WNW 15 25 992.8 - 0.0 - - - - - - -
30/06:30pm 13.6 WNW 15 22 992.8 - 0.0 - - - - - - -
30/06:00pm 13.1 WNW 13 20 993.1 - 0.0 - - - - - - -
30/05:30pm 13.4 NW 14 24 993.0 - 0.0 - - - - - - -
30/05:00pm 13.3 NW 13 22 992.9 - 0.0 - - - - - - -
30/04:30pm 13.8 WNW 16 25 993.0 - 0.0 - - - - - - -
30/04:00pm 13.6 WNW 12 20 992.8 - 0.0 - - - - - - -
30/03:30pm 13.4 WNW 11 19 992.7 - 0.0 - - - - - - -
30/03:00pm 13.2 WNW 15 27 993.2 - 0.0 - - - - - - -
30/02:30pm 13.4 WNW 16 27 993.4 - 0.0 - - - - - - -
30/02:00pm 13.4 WNW 19 32 993.8 - 0.0 - - - - - - -
30/01:30pm 13.6 WNW 25 37 994.0 - 0.0 - - - - - - -
30/01:00pm 14.9 WNW 20 31 994.0 - 0.0 - - - - - - -
30/12:30pm 14.5 WNW 22 36 993.7 - 0.0 - - - - - - -
30/12:00pm 13.9 NW 26 40 993.3 - 0.0 - - - - - - -
30/11:30am 13.8 NW 24 37 994.1 - 0.0 - - - - - - -
30/11:01am 13.9 WNW 21 32 994.8 - 0.0 - - - - - - -
30/11:00am 14.0 WNW 22 32 994.9 - 0.0 - - - - - - -
30/10:30am 13.2 WNW 19 31 995.3 - 0.0 - - - - - - -
30/10:00am 13.3 WNW 16 31 995.4 - 0.0 - - - - - - -
30/09:33am 12.6 WNW 18 29 995.5 - 0.0 - - - - - - -
30/09:30am 12.4 WNW 19 29 995.5 - 0.0 - - - - - - -
30/09:19am 12.4 NW 15 29 995.4 - 0.0 - - - - - - -
30/09:00am 11.3 NW 14 23 995.4 - 5.8 - - - - - - -
30/08:30am 11.1 NW 14 22 995.9 - 5.8 - - - - - - -
30/08:00am 10.0 NW 10 17 996.0 - 5.8 - - - - - - -
30/07:30am 9.7 NW 10 16 996.1 - 5.8 - - - - - - -
30/07:00am 9.3 NW 10 16 996.0 - 5.8 - - - - - - -
30/06:30am 8.7 NW 10 17 996.6 - 5.8 - - - - - - -
30/06:00am 9.0 NW 12 19 996.6 - 5.8 - - - - - - -
30/05:30am 9.0 NW 13 19 996.5 - 5.8 - - - - - - -
30/05:00am 9.6 WNW 19 29 996.1 - 5.8 - - - - - - -
30/04:30am 9.9 W 21 33 995.6 - 5.8 - - - - - - -
30/04:00am 9.0 WNW 16 28 995.3 - 5.6 - - - - - - -
30/03:44am 8.8 WNW 16 26 995.1 - 5.6 - - - - - - -
30/03:30am 8.7 W 14 20 994.8 - 5.6 - - - - - - -
30/03:00am 8.3 W 15 21 994.2 - 5.6 - - - - - - -
30/02:30am 8.6 WNW 17 22 993.4 - 5.6 - - - - - - -
30/02:00am 9.1 W 23 28 992.2 - 5.6 - - - - - - -
30/01:30am 7.9 WNW 13 19 992.4 - 5.6 - - - - - - -
30/01:00am 8.6 W 26 37 991.8 - 5.2 - - - - - - -
30/12:32am 8.1 W 23 34 991.7 - 5.0 - - - - - - -
30/12:30am 8.3 W 26 35 991.6 - 4.8 - - - - - - -
30/12:14am 8.6 W 34 44 990.9 - 4.8 - - - - - - -
30/12:09am 8.8 W 35 41 991.1 - 4.8 - - - - - - -
30/12:07am 8.8 W 18 40 991.5 - 4.6 - - - - - - -
30/12:00am 8.7 WNW 16 28 991.0 - 4.6 Recent precip. - - - - - -
 
Date/Time
EST
Temp

°C
Wind Pressure Rain
since 9am
mm
Weather Cloud Vis
km
Sea
Height
m
Swell
Dir
 
Speed
knots
Gust
knots
hPa Trend Height
m
Period
s
Dir
29/11:53pm 8.4 WNW 18 29 990.6 - 4.6 - - - - - - -
29/11:49pm 8.4 NW 20 29 990.4 - 4.6 - - - - - - -
29/11:30pm 8.9 W 28 41 990.8 - 4.4 - - - - - - -
29/11:22pm 9.8 WNW 25 41 990.1 - 4.0 - - - - - - -
29/11:00pm 10.6 WNW 19 31 989.0 - 3.8 - - - - - - -
29/10:30pm 11.6 WNW 29 42 988.9 - 3.8 - - - - - - -
29/10:00pm 12.3 W 25 41 988.0 - 3.8 - - - - - - -
29/09:34pm 11.6 W 32 43 987.7 - 3.8 - - - - - - -
29/09:30pm 11.2 WNW 21 31 987.7 - 3.8 - - - - - - -
29/09:00pm 10.0 WNW 19 31 987.8 - 3.8 Recent precip. - - - - - -
29/08:48pm 9.5 W 19 30 988.2 - 3.8 - - - - - - -
29/08:41pm 9.7 W 21 25 987.8 - 3.8 - - - - - - -
29/08:31pm 10.8 WNW 32 42 988.2 - 3.6 - - - - - - -
29/08:30pm 11.0 WNW 20 42 987.8 - 3.6 - - - - - - -
29/08:00pm 11.0 WNW 20 31 986.7 - 3.4 - - - - - - -
29/07:40pm 11.1 WNW 23 44 986.5 - 3.4 - - - - - - -
29/07:31pm 11.0 WNW 18 28 986.8 - 3.4 - - - - - - -
29/07:30pm 11.2 NW 18 28 986.5 - 3.4 - - - - - - -
29/07:00pm 11.5 WNW 28 42 986.5 - 3.4 - - - - - - -
29/06:47pm 11.7 WNW 20 37 986.9 - 3.4 - - - - - - -
29/06:30pm 10.4 WNW 15 25 986.2 - 3.4 - - - - - - -
29/06:22pm 8.9 W 15 26 985.9 - 3.4 - - - - - - -
29/06:19pm 9.0 W 18 26 986.2 - 3.4 - - - - - - -
29/06:15pm 8.6 WSW 30 41 985.6 - 3.2 - - - - - - -
29/06:10pm 9.0 WSW 35 41 986.3 - 2.6 - - - - - - -
29/06:08pm 10.9 SW 20 38 986.1 - 2.4 - - - - - - -
29/06:00pm 10.5 W 2 6 985.1 - 2.4 Recent precip. - - - - - -
29/05:30pm 10.5 W 11 16 985.2 - 2.4 - - - - - - -
29/05:25pm 11.5 WNW 15 25 985.5 - 2.0 - - - - - - -
29/05:00pm 11.7 N 12 22 985.1 - 1.0 - - - - - - -
29/04:30pm 11.9 NW 18 32 984.9 - 0.8 - - - - - - -
29/04:10pm 13.7 NNW 15 28 985.5 - 0.2 - - - - - - -
29/04:00pm 13.4 NW 11 20 985.6 - 0.2 - - - - - - -
29/03:30pm 13.8 NW 15 26 986.3 - 0.2 - - - - - - -
29/03:14pm 13.7 NW 16 29 986.3 - 0.2 - - - - - - -
29/03:00pm 14.0 WNW 13 20 987.1 - 0.2 - - - - - - -
29/02:38pm 13.6 NW 15 26 987.6 - 0.2 - - - - - - -
29/02:30pm 13.4 NW 17 25 987.4 - 0.2 - - - - - - -
29/02:02pm 13.2 NW 20 31 987.3 - 0.2 - - - - - - -
29/02:00pm 13.2 NW 21 31 987.4 - 0.2 - - - - - - -
29/01:30pm 12.7 NW 15 30 988.2 - 0.2 - - - - - - -
29/01:04pm 11.1 NW 24 35 989.2 - 0.2 - - - - - - -
29/01:00pm 11.0 NW 27 35 989.1 - 0.2 - - - - - - -
29/12:53pm 11.0 NW 16 27 989.6 - 0.2 - - - - - - -
29/12:30pm 11.0 W 22 36 990.4 - 0.0 - - - - - - -
29/12:01pm 11.8 WNW 20 30 989.8 - 0.0 - - - - - - -
29/12:00pm 11.8 WNW 21 30 989.8 - 0.0 - - - - - - -
29/11:30am 11.9 WNW 24 36 990.2 - 0.0 - - - - - - -
29/11:01am 13.6 NW 21 32 989.9 - 0.0 - - - - - - -
29/11:00am 13.6 NW 21 30 989.9 - 0.0 - - - - - - -
29/10:35am 13.7 WNW 22 33 989.7 - 0.0 - - - - - - -
29/10:30am 13.7 WNW 21 30 989.6 - 0.0 - - - - - - -
29/10:06am 14.5 WNW 16 26 989.9 - 0.0 - - - - - - -
29/10:00am 14.7 NW 18 26 989.8 - 0.0 - - - - - - -
29/09:51am 14.4 WNW 16 26 989.9 - 0.0 - - - - - - -
29/09:30am 14.2 NW 12 22 990.0 - 0.0 - - - - - - -
29/09:00am 12.0 NNW 9 16 990.4 - 2.4 Recent precip. - - - - - -
29/08:30am 12.0 N 11 17 990.7 - 1.4 - - - - - - -
29/08:00am 11.3 W 7 11 991.1 - 0.0 - - - - - - -
29/07:30am 13.1 WNW 13 25 991.6 - 0.0 - - - - - - -
29/07:09am 13.7 NW 15 27 992.0 - 0.0 - - - - - - -
29/07:00am 13.9 NNW 12 24 991.7 - 0.0 - - - - - - -
29/06:30am 13.3 NNW 6 14 991.5 - 0.0 - - - - - - -
29/06:00am 12.6 NNW 11 16 992.2 - 0.0 - - - - - - -
29/05:30am 12.7 N 11 18 993.1 - 0.0 - - - - - - -
29/05:00am 12.4 NNW 10 17 993.8 - 0.0 - - - - - - -
29/04:30am 11.8 N 6 10 994.1 - 0.0 - - - - - - -
29/04:00am 10.7 N 7 11 995.1 - 0.0 - - - - - - -
29/03:30am 11.5 N 9 14 995.6 - 0.0 - - - - - - -
29/03:00am 10.4 N 6 9 996.2 - 0.0 - - - - - - -
29/02:30am 11.4 N 7 12 996.8 - 0.0 - - - - - - -
29/02:00am 11.5 N 7 12 997.4 - 0.0 - - - - - - -
29/01:30am 11.1 N 5 9 997.5 - 0.0 - - - - - - -
29/01:00am 12.1 NNW 8 13 998.2 - 0.0 - - - - - - -
29/12:30am 12.4 NW 10 19 998.8 - 0.0 - - - - - - -
29/12:00am 12.5 NW 11 24 999.0 - 0.0 - - - - - - -

Other Formats:

Comma delimited format used in spreadsheet applications
http://www.bom.gov.au/fwo/IDT60701/IDT60701.94951.axf

JavaScript Object Notation format (JSON) in row-major order
http://www.bom.gov.au/fwo/IDT60701/IDT60701.94951.json